sim
Sign-in with your pilot id or email,
or register
Callsign
Passwort

Schedule Details

Flight Number: EWG1753 (2)
Departure: London Stansted Airport (EGSS) at 08:20
Arrival: Munich Airport (EDDM) at 10:05
Route: Eurowings Passenger Schedule. Enter filed route here before submitting Pirep.

Weather Information
Getting current METAR information for EGSS 291620Z AUTO VRB03KT 9999 FEW012 15/12 Q1015
Getting current METAR information for EDDM 291620Z 27008KT 9999 BKN020 12/09 Q1019 NOSIG

Schedule Frequency

Route Map